sensor_id;sensor_type;location;lat;lon;timestamp;temperature;humidity
33067;DHT22;19428;49.024;8.366;2022-12-10T00:00:51;2.50;99.90
33067;DHT22;19428;49.024;8.366;2022-12-10T00:03:17;2.50;99.90
33067;DHT22;19428;49.024;8.366;2022-12-10T00:05:42;2.50;99.90
33067;DHT22;19428;49.024;8.366;2022-12-10T00:08:08;2.50;99.90
33067;DHT22;19428;49.024;8.366;2022-12-10T00:10:34;2.50;99.90
33067;DHT22;19428;49.024;8.366;2022-12-10T00:12:59;2.60;99.90
33067;DHT22;19428;49.024;8.366;2022-12-10T00:15:25;2.50;99.90
33067;DHT22;19428;49.024;8.366;2022-12-10T00:17:50;2.50;99.90
33067;DHT22;19428;49.024;8.366;2022-12-10T00:20:16;2.50;99.90
33067;DHT22;19428;49.024;8.366;2022-12-10T00:22:42;2.50;99.90
33067;DHT22;19428;49.024;8.366;2022-12-10T00:25:07;2.50;99.90
33067;DHT22;19428;49.024;8.366;2022-12-10T00:27:33;2.50;99.90
33067;DHT22;19428;49.024;8.366;2022-12-10T00:29:58;2.50;99.90
33067;DHT22;19428;49.024;8.366;2022-12-10T00:32:24;2.50;99.90
33067;DHT22;19428;49.024;8.366;2022-12-10T00:34:50;2.50;99.90
33067;DHT22;19428;49.024;8.366;2022-12-10T00:37:15;2.50;99.90
33067;DHT22;19428;49.024;8.366;2022-12-10T00:39:41;2.50;99.90
33067;DHT22;19428;49.024;8.366;2022-12-10T00:42:06;2.50;99.90
33067;DHT22;19428;49.024;8.366;2022-12-10T00:44:32;2.50;99.90
33067;DHT22;19428;49.024;8.366;2022-12-10T00:46:57;2.50;99.90
33067;DHT22;19428;49.024;8.366;2022-12-10T00:49:23;2.40;99.90
33067;DHT22;19428;49.024;8.366;2022-12-10T00:51:50;2.40;99.90
33067;DHT22;19428;49.024;8.366;2022-12-10T00:54:15;2.40;99.90
33067;DHT22;19428;49.024;8.366;2022-12-10T00:56:41;2.40;99.90
33067;DHT22;19428;49.024;8.366;2022-12-10T00:59:06;2.40;99.90
33067;DHT22;19428;49.024;8.366;2022-12-10T01:01:35;2.40;99.90
33067;DHT22;19428;49.024;8.366;2022-12-10T01:04:08;2.40;99.90
33067;DHT22;19428;49.024;8.366;2022-12-10T01:06:40;2.40;99.90
33067;DHT22;19428;49.024;8.366;2022-12-10T01:09:07;2.40;99.90
33067;DHT22;19428;49.024;8.366;2022-12-10T01:11:37;2.40;99.90
33067;DHT22;19428;49.024;8.366;2022-12-10T01:14:03;2.30;99.90
33067;DHT22;19428;49.024;8.366;2022-12-10T01:16:29;2.40;99.90
33067;DHT22;19428;49.024;8.366;2022-12-10T01:18:57;2.40;99.90
33067;DHT22;19428;49.024;8.366;2022-12-10T01:21:23;2.40;99.90
33067;DHT22;19428;49.024;8.366;2022-12-10T01:23:50;2.40;99.90
33067;DHT22;19428;49.024;8.366;2022-12-10T01:26:22;2.40;99.90
33067;DHT22;19428;49.024;8.366;2022-12-10T01:28:48;2.30;99.90
33067;DHT22;19428;49.024;8.366;2022-12-10T01:31:17;2.30;99.90
33067;DHT22;19428;49.024;8.366;2022-12-10T01:33:44;2.30;99.90
33067;DHT22;19428;49.024;8.366;2022-12-10T01:36:22;2.30;99.90
33067;DHT22;19428;49.024;8.366;2022-12-10T01:38:48;2.30;99.90
33067;DHT22;19428;49.024;8.366;2022-12-10T01:41:17;2.40;99.90
33067;DHT22;19428;49.024;8.366;2022-12-10T01:46:29;2.30;99.90
33067;DHT22;19428;49.024;8.366;2022-12-10T01:48:56;2.40;99.90
33067;DHT22;19428;49.024;8.366;2022-12-10T01:51:24;2.30;99.90
33067;DHT22;19428;49.024;8.366;2022-12-10T01:53:51;2.30;99.90
33067;DHT22;19428;49.024;8.366;2022-12-10T01:56:18;2.30;99.90
33067;DHT22;19428;49.024;8.366;2022-12-10T01:58:46;2.30;99.90
33067;DHT22;19428;49.024;8.366;2022-12-10T02:01:49;2.40;99.90
33067;DHT22;19428;49.024;8.366;2022-12-10T02:10:23;2.30;99.90
33067;DHT22;19428;49.024;8.366;2022-12-10T02:13:11;2.30;99.90
33067;DHT22;19428;49.024;8.366;2022-12-10T02:15:51;2.30;99.90
33067;DHT22;19428;49.024;8.366;2022-12-10T02:18:27;2.20;99.90
33067;DHT22;19428;49.024;8.366;2022-12-10T02:21:02;2.20;99.90
33067;DHT22;19428;49.024;8.366;2022-12-10T02:23:50;2.20;99.90
33067;DHT22;19428;49.024;8.366;2022-12-10T02:26:23;2.20;99.90
33067;DHT22;19428;49.024;8.366;2022-12-10T02:29:16;2.20;99.90
33067;DHT22;19428;49.024;8.366;2022-12-10T02:31:51;2.10;99.90
33067;DHT22;19428;49.024;8.366;2022-12-10T02:34:18;2.10;99.90
33067;DHT22;19428;49.024;8.366;2022-12-10T02:36:46;2.10;99.90
33067;DHT22;19428;49.024;8.366;2022-12-10T02:39:17;2.10;99.90
33067;DHT22;19428;49.024;8.366;2022-12-10T02:41:47;2.10;99.90
33067;DHT22;19428;49.024;8.366;2022-12-10T02:44:16;2.10;99.90
33067;DHT22;19428;49.024;8.366;2022-12-10T02:46:45;2.10;99.90
33067;DHT22;19428;49.024;8.366;2022-12-10T02:52:34;2.10;99.90
33067;DHT22;19428;49.024;8.366;2022-12-10T02:55:00;2.10;99.90
33067;DHT22;19428;49.024;8.366;2022-12-10T03:00:19;2.00;99.90
33067;DHT22;19428;49.024;8.366;2022-12-10T03:08:22;2.10;99.90
33067;DHT22;19428;49.024;8.366;2022-12-10T03:11:05;2.00;99.90
33067;DHT22;19428;49.024;8.366;2022-12-10T03:13:37;2.00;99.90
33067;DHT22;19428;49.024;8.366;2022-12-10T03:16:04;2.00;99.90
33067;DHT22;19428;49.024;8.366;2022-12-10T03:18:31;2.00;99.90
33067;DHT22;19428;49.024;8.366;2022-12-10T03:21:03;2.00;99.90
33067;DHT22;19428;49.024;8.366;2022-12-10T03:23:29;2.10;99.90
33067;DHT22;19428;49.024;8.366;2022-12-10T03:25:58;2.00;99.90
33067;DHT22;19428;49.024;8.366;2022-12-10T03:28:26;2.00;99.90
33067;DHT22;19428;49.024;8.366;2022-12-10T03:30:52;2.00;99.90
33067;DHT22;19428;49.024;8.366;2022-12-10T03:33:20;2.00;99.90
33067;DHT22;19428;49.024;8.366;2022-12-10T03:35:46;2.00;99.90
33067;DHT22;19428;49.024;8.366;2022-12-10T03:38:13;2.00;99.90
33067;DHT22;19428;49.024;8.366;2022-12-10T03:40:39;2.00;99.90
33067;DHT22;19428;49.024;8.366;2022-12-10T03:43:04;2.00;99.90
33067;DHT22;19428;49.024;8.366;2022-12-10T03:45:30;2.00;99.90
33067;DHT22;19428;49.024;8.366;2022-12-10T03:47:56;2.00;99.90
33067;DHT22;19428;49.024;8.366;2022-12-10T03:50:21;2.00;99.90
33067;DHT22;19428;49.024;8.366;2022-12-10T03:52:47;2.00;99.90
33067;DHT22;19428;49.024;8.366;2022-12-10T03:55:12;2.00;99.90
33067;DHT22;19428;49.024;8.366;2022-12-10T03:57:38;2.00;99.90
33067;DHT22;19428;49.024;8.366;2022-12-10T04:00:05;2.00;99.90
33067;DHT22;19428;49.024;8.366;2022-12-10T04:02:31;2.00;99.90
33067;DHT22;19428;49.024;8.366;2022-12-10T04:04:57;2.00;99.90
33067;DHT22;19428;49.024;8.366;2022-12-10T04:07:22;1.90;99.90
33067;DHT22;19428;49.024;8.366;2022-12-10T04:09:48;1.90;99.90
33067;DHT22;19428;49.024;8.366;2022-12-10T04:12:13;2.00;99.90
33067;DHT22;19428;49.024;8.366;2022-12-10T04:14:39;2.00;99.90
33067;DHT22;19428;49.024;8.366;2022-12-10T04:17:23;2.00;99.90
33067;DHT22;19428;49.024;8.366;2022-12-10T04:19:49;1.90;99.90
33067;DHT22;19428;49.024;8.366;2022-12-10T04:22:14;2.00;99.90
33067;DHT22;19428;49.024;8.366;2022-12-10T04:24:58;2.00;99.90
33067;DHT22;19428;49.024;8.366;2022-12-10T04:27:36;2.00;99.90
33067;DHT22;19428;49.024;8.366;2022-12-10T04:30:04;2.00;99.90
33067;DHT22;19428;49.024;8.366;2022-12-10T04:32:30;2.00;99.90
33067;DHT22;19428;49.024;8.366;2022-12-10T04:34:56;2.00;99.90
33067;DHT22;19428;49.024;8.366;2022-12-10T04:37:22;1.90;99.90
33067;DHT22;19428;49.024;8.366;2022-12-10T04:39:50;1.90;99.90
33067;DHT22;19428;49.024;8.366;2022-12-10T04:42:15;1.90;99.90
33067;DHT22;19428;49.024;8.366;2022-12-10T04:44:41;2.00;99.90
33067;DHT22;19428;49.024;8.366;2022-12-10T04:47:08;2.00;99.90
33067;DHT22;19428;49.024;8.366;2022-12-10T04:49:34;1.90;99.90
33067;DHT22;19428;49.024;8.366;2022-12-10T04:52:00;1.80;99.90
33067;DHT22;19428;49.024;8.366;2022-12-10T04:54:26;1.80;99.90
33067;DHT22;19428;49.024;8.366;2022-12-10T04:56:52;1.80;99.90
33067;DHT22;19428;49.024;8.366;2022-12-10T04:59:18;1.80;99.90
33067;DHT22;19428;49.024;8.366;2022-12-10T05:01:44;1.80;99.90
33067;DHT22;19428;49.024;8.366;2022-12-10T05:04:12;1.80;99.90
33067;DHT22;19428;49.024;8.366;2022-12-10T05:06:38;1.80;99.90
33067;DHT22;19428;49.024;8.366;2022-12-10T05:09:04;1.80;99.90
33067;DHT22;19428;49.024;8.366;2022-12-10T05:11:31;1.70;99.90
33067;DHT22;19428;49.024;8.366;2022-12-10T05:13:57;1.70;99.90
33067;DHT22;19428;49.024;8.366;2022-12-10T05:16:27;1.70;99.90
33067;DHT22;19428;49.024;8.366;2022-12-10T05:18:54;1.70;99.90
33067;DHT22;19428;49.024;8.366;2022-12-10T05:21:22;1.70;99.90
33067;DHT22;19428;49.024;8.366;2022-12-10T05:23:50;1.70;99.90
33067;DHT22;19428;49.024;8.366;2022-12-10T05:26:19;1.80;99.90
33067;DHT22;19428;49.024;8.366;2022-12-10T05:28:52;1.70;99.90
33067;DHT22;19428;49.024;8.366;2022-12-10T05:31:20;1.70;99.90
33067;DHT22;19428;49.024;8.366;2022-12-10T05:33:46;1.70;99.90
33067;DHT22;19428;49.024;8.366;2022-12-10T05:36:13;1.70;99.90
33067;DHT22;19428;49.024;8.366;2022-12-10T05:38:39;1.70;99.90
33067;DHT22;19428;49.024;8.366;2022-12-10T05:41:12;1.70;99.90
33067;DHT22;19428;49.024;8.366;2022-12-10T05:43:38;1.80;99.90
33067;DHT22;19428;49.024;8.366;2022-12-10T05:46:06;1.70;99.90
33067;DHT22;19428;49.024;8.366;2022-12-10T05:48:33;1.70;99.90
33067;DHT22;19428;49.024;8.366;2022-12-10T05:51:12;1.70;99.90
33067;DHT22;19428;49.024;8.366;2022-12-10T05:53:39;1.80;99.90
33067;DHT22;19428;49.024;8.366;2022-12-10T05:56:07;1.70;99.90
33067;DHT22;19428;49.024;8.366;2022-12-10T05:58:34;1.80;99.90
33067;DHT22;19428;49.024;8.366;2022-12-10T06:01:09;1.70;99.90
33067;DHT22;19428;49.024;8.366;2022-12-10T06:03:35;1.70;99.90
33067;DHT22;19428;49.024;8.366;2022-12-10T06:06:00;1.70;99.90
33067;DHT22;19428;49.024;8.366;2022-12-10T06:08:26;1.70;99.90
33067;DHT22;19428;49.024;8.366;2022-12-10T06:10:52;1.70;99.90
33067;DHT22;19428;49.024;8.366;2022-12-10T06:13:19;1.70;99.90
33067;DHT22;19428;49.024;8.366;2022-12-10T06:15:45;1.60;99.90
33067;DHT22;19428;49.024;8.366;2022-12-10T06:18:10;1.60;99.90
33067;DHT22;19428;49.024;8.366;2022-12-10T06:20:39;1.60;99.90
33067;DHT22;19428;49.024;8.366;2022-12-10T06:23:06;1.60;99.90
33067;DHT22;19428;49.024;8.366;2022-12-10T06:25:32;1.60;99.90
33067;DHT22;19428;49.024;8.366;2022-12-10T06:27:58;1.50;99.90
33067;DHT22;19428;49.024;8.366;2022-12-10T06:30:24;1.60;99.90
33067;DHT22;19428;49.024;8.366;2022-12-10T06:32:49;1.50;99.90
33067;DHT22;19428;49.024;8.366;2022-12-10T06:35:15;1.60;99.90
33067;DHT22;19428;49.024;8.366;2022-12-10T06:37:40;1.50;99.90
33067;DHT22;19428;49.024;8.366;2022-12-10T06:40:06;1.50;99.90
33067;DHT22;19428;49.024;8.366;2022-12-10T06:42:32;1.50;99.90
33067;DHT22;19428;49.024;8.366;2022-12-10T06:44:58;1.50;99.90
33067;DHT22;19428;49.024;8.366;2022-12-10T06:47:23;1.50;99.90
33067;DHT22;19428;49.024;8.366;2022-12-10T06:49:49;1.50;99.90
33067;DHT22;19428;49.024;8.366;2022-12-10T06:52:15;1.50;99.90
33067;DHT22;19428;49.024;8.366;2022-12-10T06:54:40;1.50;99.90
33067;DHT22;19428;49.024;8.366;2022-12-10T06:57:06;1.60;99.90
33067;DHT22;19428;49.024;8.366;2022-12-10T06:59:31;1.60;99.90
33067;DHT22;19428;49.024;8.366;2022-12-10T07:01:57;1.60;99.90
33067;DHT22;19428;49.024;8.366;2022-12-10T07:04:23;1.60;99.90
33067;DHT22;19428;49.024;8.366;2022-12-10T07:06:48;1.50;99.90
33067;DHT22;19428;49.024;8.366;2022-12-10T07:09:14;1.60;99.90
33067;DHT22;19428;49.024;8.366;2022-12-10T07:11:41;1.60;99.90
33067;DHT22;19428;49.024;8.366;2022-12-10T07:14:07;1.60;99.90
33067;DHT22;19428;49.024;8.366;2022-12-10T07:16:33;1.50;99.90
33067;DHT22;19428;49.024;8.366;2022-12-10T07:19:01;1.50;99.90
33067;DHT22;19428;49.024;8.366;2022-12-10T07:21:32;1.50;99.90
33067;DHT22;19428;49.024;8.366;2022-12-10T07:24:02;1.60;99.90
33067;DHT22;19428;49.024;8.366;2022-12-10T07:26:30;1.50;99.90
33067;DHT22;19428;49.024;8.366;2022-12-10T07:28:57;1.50;99.90
33067;DHT22;19428;49.024;8.366;2022-12-10T07:31:23;1.50;99.90
33067;DHT22;19428;49.024;8.366;2022-12-10T07:33:50;1.50;99.90
33067;DHT22;19428;49.024;8.366;2022-12-10T07:36:16;1.50;99.90
33067;DHT22;19428;49.024;8.366;2022-12-10T07:38:42;1.60;99.90
33067;DHT22;19428;49.024;8.366;2022-12-10T07:41:12;1.60;99.90
33067;DHT22;19428;49.024;8.366;2022-12-10T07:43:40;1.60;99.90
33067;DHT22;19428;49.024;8.366;2022-12-10T07:46:11;1.60;99.90
33067;DHT22;19428;49.024;8.366;2022-12-10T07:48:38;1.60;99.90
33067;DHT22;19428;49.024;8.366;2022-12-10T07:51:04;1.60;99.90
33067;DHT22;19428;49.024;8.366;2022-12-10T07:53:30;1.60;99.90
33067;DHT22;19428;49.024;8.366;2022-12-10T07:55:56;1.60;99.90
33067;DHT22;19428;49.024;8.366;2022-12-10T07:58:21;1.60;99.90
33067;DHT22;19428;49.024;8.366;2022-12-10T08:00:47;1.60;99.90
33067;DHT22;19428;49.024;8.366;2022-12-10T08:03:13;1.60;99.90
33067;DHT22;19428;49.024;8.366;2022-12-10T08:05:39;1.60;99.90
33067;DHT22;19428;49.024;8.366;2022-12-10T08:08:04;1.60;99.90
33067;DHT22;19428;49.024;8.366;2022-12-10T08:10:33;1.60;99.90
33067;DHT22;19428;49.024;8.366;2022-12-10T08:12:58;1.70;99.90
33067;DHT22;19428;49.024;8.366;2022-12-10T08:15:24;1.70;99.90
33067;DHT22;19428;49.024;8.366;2022-12-10T08:17:49;1.70;99.90
33067;DHT22;19428;49.024;8.366;2022-12-10T08:20:15;1.80;99.90
33067;DHT22;19428;49.024;8.366;2022-12-10T08:22:40;1.80;99.90
33067;DHT22;19428;49.024;8.366;2022-12-10T08:25:06;1.80;99.90
33067;DHT22;19428;49.024;8.366;2022-12-10T08:27:32;1.70;99.90
33067;DHT22;19428;49.024;8.366;2022-12-10T08:29:58;1.70;99.90
33067;DHT22;19428;49.024;8.366;2022-12-10T08:32:23;1.70;99.90
33067;DHT22;19428;49.024;8.366;2022-12-10T08:34:49;1.80;99.90
33067;DHT22;19428;49.024;8.366;2022-12-10T08:37:14;1.80;99.90
33067;DHT22;19428;49.024;8.366;2022-12-10T08:39:40;1.80;99.90
33067;DHT22;19428;49.024;8.366;2022-12-10T08:42:06;1.80;99.90
33067;DHT22;19428;49.024;8.366;2022-12-10T08:44:32;1.70;99.90
33067;DHT22;19428;49.024;8.366;2022-12-10T08:46:57;1.70;99.90
33067;DHT22;19428;49.024;8.366;2022-12-10T08:49:23;1.70;99.90
33067;DHT22;19428;49.024;8.366;2022-12-10T08:51:48;1.70;99.90
33067;DHT22;19428;49.024;8.366;2022-12-10T08:54:14;1.60;99.90
33067;DHT22;19428;49.024;8.366;2022-12-10T08:56:40;1.60;99.90
33067;DHT22;19428;49.024;8.366;2022-12-10T08:59:06;1.70;99.90
33067;DHT22;19428;49.024;8.366;2022-12-10T09:01:32;1.70;99.90
33067;DHT22;19428;49.024;8.366;2022-12-10T09:03:58;1.80;99.90
33067;DHT22;19428;49.024;8.366;2022-12-10T09:06:24;1.70;99.90
33067;DHT22;19428;49.024;8.366;2022-12-10T09:08:50;1.70;99.90
33067;DHT22;19428;49.024;8.366;2022-12-10T09:11:51;1.80;99.90
33067;DHT22;19428;49.024;8.366;2022-12-10T09:14:11;1.80;99.90
33067;DHT22;19428;49.024;8.366;2022-12-10T09:16:37;1.80;99.90
33067;DHT22;19428;49.024;8.366;2022-12-10T09:19:04;1.90;99.90
33067;DHT22;19428;49.024;8.366;2022-12-10T09:21:30;1.80;99.90
33067;DHT22;19428;49.024;8.366;2022-12-10T09:23:56;1.80;99.90
33067;DHT22;19428;49.024;8.366;2022-12-10T09:26:22;1.90;99.90
33067;DHT22;19428;49.024;8.366;2022-12-10T09:28:49;2.00;99.90
33067;DHT22;19428;49.024;8.366;2022-12-10T09:31:16;1.80;99.90
33067;DHT22;19428;49.024;8.366;2022-12-10T09:33:42;2.00;99.90
33067;DHT22;19428;49.024;8.366;2022-12-10T09:36:10;1.90;99.90
33067;DHT22;19428;49.024;8.366;2022-12-10T09:38:37;1.90;99.90
33067;DHT22;19428;49.024;8.366;2022-12-10T09:43:46;2.00;99.90
33067;DHT22;19428;49.024;8.366;2022-12-10T09:46:35;1.90;99.90
33067;DHT22;19428;49.024;8.366;2022-12-10T09:49:22;1.90;99.90
33067;DHT22;19428;49.024;8.366;2022-12-10T09:51:50;2.00;99.90
33067;DHT22;19428;49.024;8.366;2022-12-10T09:54:25;1.90;99.90
33067;DHT22;19428;49.024;8.366;2022-12-10T09:56:53;2.00;99.90
33067;DHT22;19428;49.024;8.366;2022-12-10T09:59:42;1.90;99.90
33067;DHT22;19428;49.024;8.366;2022-12-10T10:02:21;1.90;99.90
33067;DHT22;19428;49.024;8.366;2022-12-10T10:04:49;1.80;99.90
33067;DHT22;19428;49.024;8.366;2022-12-10T10:07:27;1.90;99.90
33067;DHT22;19428;49.024;8.366;2022-12-10T10:09:58;1.90;99.90
33067;DHT22;19428;49.024;8.366;2022-12-10T10:12:27;1.80;99.90
33067;DHT22;19428;49.024;8.366;2022-12-10T10:14:53;1.80;99.90
33067;DHT22;19428;49.024;8.366;2022-12-10T10:17:29;1.80;99.90
33067;DHT22;19428;49.024;8.366;2022-12-10T10:19:57;1.90;99.90
33067;DHT22;19428;49.024;8.366;2022-12-10T10:22:23;2.00;99.90
33067;DHT22;19428;49.024;8.366;2022-12-10T10:24:48;1.90;99.90
33067;DHT22;19428;49.024;8.366;2022-12-10T10:29:46;2.00;99.90
33067;DHT22;19428;49.024;8.366;2022-12-10T10:32:18;2.10;99.90
33067;DHT22;19428;49.024;8.366;2022-12-10T10:34:46;2.00;99.90
33067;DHT22;19428;49.024;8.366;2022-12-10T10:37:23;1.90;99.90
33067;DHT22;19428;49.024;8.366;2022-12-10T10:39:51;2.00;99.90
33067;DHT22;19428;49.024;8.366;2022-12-10T10:42:46;2.00;99.90
33067;DHT22;19428;49.024;8.366;2022-12-10T10:45:34;2.10;99.90
33067;DHT22;19428;49.024;8.366;2022-12-10T10:48:15;2.20;99.90
33067;DHT22;19428;49.024;8.366;2022-12-10T10:50:43;2.20;99.90
33067;DHT22;19428;49.024;8.366;2022-12-10T10:55:51;2.10;99.90
33067;DHT22;19428;49.024;8.366;2022-12-10T10:58:20;2.20;99.90
33067;DHT22;19428;49.024;8.366;2022-12-10T11:01:04;2.30;99.90
33067;DHT22;19428;49.024;8.366;2022-12-10T11:03:33;2.20;99.90
33067;DHT22;19428;49.024;8.366;2022-12-10T11:05:59;2.30;99.90
33067;DHT22;19428;49.024;8.366;2022-12-10T11:08:30;2.20;99.90
33067;DHT22;19428;49.024;8.366;2022-12-10T11:11:03;2.20;99.90
33067;DHT22;19428;49.024;8.366;2022-12-10T11:13:32;2.40;99.90
33067;DHT22;19428;49.024;8.366;2022-12-10T11:16:09;2.50;99.90
33067;DHT22;19428;49.024;8.366;2022-12-10T11:18:39;2.60;99.90
33067;DHT22;19428;49.024;8.366;2022-12-10T11:23:36;2.50;99.90
33067;DHT22;19428;49.024;8.366;2022-12-10T11:37:29;2.80;99.90
33067;DHT22;19428;49.024;8.366;2022-12-10T11:40:20;3.00;99.90
33067;DHT22;19428;49.024;8.366;2022-12-10T11:50:52;2.80;99.90
33067;DHT22;19428;49.024;8.366;2022-12-10T12:01:31;2.80;99.90
33067;DHT22;19428;49.024;8.366;2022-12-10T12:15:03;2.90;99.90
33067;DHT22;19428;49.024;8.366;2022-12-10T12:17:34;2.80;99.90
33067;DHT22;19428;49.024;8.366;2022-12-10T12:22:35;2.70;99.90
33067;DHT22;19428;49.024;8.366;2022-12-10T12:25:17;2.60;99.90
33067;DHT22;19428;49.024;8.366;2022-12-10T12:27:50;2.50;99.90
33067;DHT22;19428;49.024;8.366;2022-12-10T12:30:19;2.60;99.90
33067;DHT22;19428;49.024;8.366;2022-12-10T12:33:03;2.60;99.90
33067;DHT22;19428;49.024;8.366;2022-12-10T12:35:51;2.70;99.90
33067;DHT22;19428;49.024;8.366;2022-12-10T12:38:33;2.70;99.90
33067;DHT22;19428;49.024;8.366;2022-12-10T12:41:05;2.70;99.90
33067;DHT22;19428;49.024;8.366;2022-12-10T12:43:46;2.90;99.90
33067;DHT22;19428;49.024;8.366;2022-12-10T12:46:18;3.00;99.90
33067;DHT22;19428;49.024;8.366;2022-12-10T12:48:57;2.80;99.90
33067;DHT22;19428;49.024;8.366;2022-12-10T12:51:32;2.80;99.90
33067;DHT22;19428;49.024;8.366;2022-12-10T12:53:58;3.00;99.90
33067;DHT22;19428;49.024;8.366;2022-12-10T13:02:31;2.80;99.90
33067;DHT22;19428;49.024;8.366;2022-12-10T13:05:02;2.90;99.90
33067;DHT22;19428;49.024;8.366;2022-12-10T13:07:31;2.90;99.90
33067;DHT22;19428;49.024;8.366;2022-12-10T13:10:22;2.80;99.90
33067;DHT22;19428;49.024;8.366;2022-12-10T13:12:51;2.80;99.90
33067;DHT22;19428;49.024;8.366;2022-12-10T13:15:23;2.70;99.90
33067;DHT22;19428;49.024;8.366;2022-12-10T13:20:46;2.60;99.90
33067;DHT22;19428;49.024;8.366;2022-12-10T13:36:35;2.60;99.90
33067;DHT22;19428;49.024;8.366;2022-12-10T13:41:40;2.70;99.90
33067;DHT22;19428;49.024;8.366;2022-12-10T13:49:54;2.80;99.90
33067;DHT22;19428;49.024;8.366;2022-12-10T13:52:49;2.80;99.90
33067;DHT22;19428;49.024;8.366;2022-12-10T14:00:39;2.70;99.90
33067;DHT22;19428;49.024;8.366;2022-12-10T14:03:33;2.80;99.90
33067;DHT22;19428;49.024;8.366;2022-12-10T14:08:37;2.70;99.90
33067;DHT22;19428;49.024;8.366;2022-12-10T14:11:10;2.70;99.90
33067;DHT22;19428;49.024;8.366;2022-12-10T14:13:44;2.70;99.90
33067;DHT22;19428;49.024;8.366;2022-12-10T14:16:14;2.70;99.90
33067;DHT22;19428;49.024;8.366;2022-12-10T14:18:46;2.70;99.90
33067;DHT22;19428;49.024;8.366;2022-12-10T14:21:16;2.70;99.90
33067;DHT22;19428;49.024;8.366;2022-12-10T14:23:48;2.60;99.90
33067;DHT22;19428;49.024;8.366;2022-12-10T14:26:18;2.70;99.90
33067;DHT22;19428;49.024;8.366;2022-12-10T14:28:54;2.50;99.90
33067;DHT22;19428;49.024;8.366;2022-12-10T14:31:26;2.60;99.90
33067;DHT22;19428;49.024;8.366;2022-12-10T14:33:55;2.60;99.90
33067;DHT22;19428;49.024;8.366;2022-12-10T14:36:30;2.60;99.90
33067;DHT22;19428;49.024;8.366;2022-12-10T14:38:58;2.60;99.90
33067;DHT22;19428;49.024;8.366;2022-12-10T14:41:26;2.60;99.90
33067;DHT22;19428;49.024;8.366;2022-12-10T14:43:53;2.60;99.90
33067;DHT22;19428;49.024;8.366;2022-12-10T14:46:27;2.70;99.90
33067;DHT22;19428;49.024;8.366;2022-12-10T14:48:54;2.70;99.90
33067;DHT22;19428;49.024;8.366;2022-12-10T14:51:25;2.60;99.90
33067;DHT22;19428;49.024;8.366;2022-12-10T14:53:52;2.90;99.90
33067;DHT22;19428;49.024;8.366;2022-12-10T14:56:32;2.80;99.90
33067;DHT22;19428;49.024;8.366;2022-12-10T14:59:16;2.70;99.90
33067;DHT22;19428;49.024;8.366;2022-12-10T15:01:49;2.70;99.90
33067;DHT22;19428;49.024;8.366;2022-12-10T15:04:19;2.70;99.90
33067;DHT22;19428;49.024;8.366;2022-12-10T15:06:45;2.60;99.90
33067;DHT22;19428;49.024;8.366;2022-12-10T15:09:24;2.70;99.90
33067;DHT22;19428;49.024;8.366;2022-12-10T15:11:58;2.60;99.90
33067;DHT22;19428;49.024;8.366;2022-12-10T15:14:26;2.70;99.90
33067;DHT22;19428;49.024;8.366;2022-12-10T15:16:52;2.70;99.90
33067;DHT22;19428;49.024;8.366;2022-12-10T15:22:01;2.70;99.90
33067;DHT22;19428;49.024;8.366;2022-12-10T15:24:36;2.70;99.90
33067;DHT22;19428;49.024;8.366;2022-12-10T15:27:02;2.70;99.90
33067;DHT22;19428;49.024;8.366;2022-12-10T15:29:39;2.70;99.90
33067;DHT22;19428;49.024;8.366;2022-12-10T15:32:19;2.60;99.90
33067;DHT22;19428;49.024;8.366;2022-12-10T15:34:54;2.60;99.90
33067;DHT22;19428;49.024;8.366;2022-12-10T15:37:26;2.60;99.90
33067;DHT22;19428;49.024;8.366;2022-12-10T15:39:57;2.60;99.90
33067;DHT22;19428;49.024;8.366;2022-12-10T15:45:02;2.60;99.90
33067;DHT22;19428;49.024;8.366;2022-12-10T15:47:30;2.60;99.90
33067;DHT22;19428;49.024;8.366;2022-12-10T15:49:56;2.60;99.90
33067;DHT22;19428;49.024;8.366;2022-12-10T15:52:24;2.60;99.90
33067;DHT22;19428;49.024;8.366;2022-12-10T15:54:52;2.60;99.90
33067;DHT22;19428;49.024;8.366;2022-12-10T15:57:37;2.60;99.90
33067;DHT22;19428;49.024;8.366;2022-12-10T16:00:23;2.50;99.90
33067;DHT22;19428;49.024;8.366;2022-12-10T16:02:59;2.50;99.90
33067;DHT22;19428;49.024;8.366;2022-12-10T16:05:28;2.50;99.90
33067;DHT22;19428;49.024;8.366;2022-12-10T16:07:58;2.50;99.90
33067;DHT22;19428;49.024;8.366;2022-12-10T16:10:25;2.50;99.90
33067;DHT22;19428;49.024;8.366;2022-12-10T16:13:04;2.40;99.90
33067;DHT22;19428;49.024;8.366;2022-12-10T16:15:32;2.40;99.90
33067;DHT22;19428;49.024;8.366;2022-12-10T16:18:04;2.40;99.90
33067;DHT22;19428;49.024;8.366;2022-12-10T16:20:31;2.30;99.90
33067;DHT22;19428;49.024;8.366;2022-12-10T16:22:58;2.30;99.90
33067;DHT22;19428;49.024;8.366;2022-12-10T16:25:27;2.20;99.90
33067;DHT22;19428;49.024;8.366;2022-12-10T16:27:56;2.20;99.90
33067;DHT22;19428;49.024;8.366;2022-12-10T16:30:28;2.20;99.90
33067;DHT22;19428;49.024;8.366;2022-12-10T16:32:54;2.10;99.90
33067;DHT22;19428;49.024;8.366;2022-12-10T16:35:21;2.20;99.90
33067;DHT22;19428;49.024;8.366;2022-12-10T16:37:48;2.10;99.90
33067;DHT22;19428;49.024;8.366;2022-12-10T16:40:24;2.10;99.90
33067;DHT22;19428;49.024;8.366;2022-12-10T17:01:58;2.00;99.90
33067;DHT22;19428;49.024;8.366;2022-12-10T17:04:24;2.00;99.90
33067;DHT22;19428;49.024;8.366;2022-12-10T17:06:50;2.00;99.90
33067;DHT22;19428;49.024;8.366;2022-12-10T17:09:15;2.00;99.90
33067;DHT22;19428;49.024;8.366;2022-12-10T17:11:41;2.00;99.90
33067;DHT22;19428;49.024;8.366;2022-12-10T17:14:27;2.10;99.90
33067;DHT22;19428;49.024;8.366;2022-12-10T17:16:55;2.00;99.90
33067;DHT22;19428;49.024;8.366;2022-12-10T17:19:23;2.10;99.90
33067;DHT22;19428;49.024;8.366;2022-12-10T17:21:48;2.10;99.90
33067;DHT22;19428;49.024;8.366;2022-12-10T17:24:14;2.10;99.90
33067;DHT22;19428;49.024;8.366;2022-12-10T17:26:45;2.10;99.90
33067;DHT22;19428;49.024;8.366;2022-12-10T17:29:24;2.10;99.90
33067;DHT22;19428;49.024;8.366;2022-12-10T17:31:50;2.10;99.90
33067;DHT22;19428;49.024;8.366;2022-12-10T17:34:15;2.10;99.90
33067;DHT22;19428;49.024;8.366;2022-12-10T17:36:42;2.10;99.90
33067;DHT22;19428;49.024;8.366;2022-12-10T17:39:18;2.00;99.90
33067;DHT22;19428;49.024;8.366;2022-12-10T17:41:45;2.00;99.90
33067;DHT22;19428;49.024;8.366;2022-12-10T17:44:10;2.10;99.90
33067;DHT22;19428;49.024;8.366;2022-12-10T17:46:36;2.10;99.90
33067;DHT22;19428;49.024;8.366;2022-12-10T17:49:02;2.20;99.90
33067;DHT22;19428;49.024;8.366;2022-12-10T17:51:28;2.20;99.90
33067;DHT22;19428;49.024;8.366;2022-12-10T17:53:54;2.20;99.90
33067;DHT22;19428;49.024;8.366;2022-12-10T17:56:22;2.20;99.90
33067;DHT22;19428;49.024;8.366;2022-12-10T17:58:49;2.10;99.90
33067;DHT22;19428;49.024;8.366;2022-12-10T18:01:16;2.10;99.90
33067;DHT22;19428;49.024;8.366;2022-12-10T18:03:43;2.10;99.90
33067;DHT22;19428;49.024;8.366;2022-12-10T18:06:20;2.10;99.90
33067;DHT22;19428;49.024;8.366;2022-12-10T18:08:46;2.10;99.90
33067;DHT22;19428;49.024;8.366;2022-12-10T18:11:14;2.00;99.90
33067;DHT22;19428;49.024;8.366;2022-12-10T18:13:40;1.90;99.90